sensor_id;sensor_type;location;lat;lon;timestamp;temperature;humidity
18577;DHT22;9418;52.694;13.294;2022-11-15T00:02:16;5.20;99.90
18577;DHT22;9418;52.694;13.294;2022-11-15T00:04:43;5.20;99.90
18577;DHT22;9418;52.694;13.294;2022-11-15T00:07:09;5.10;99.90
18577;DHT22;9418;52.694;13.294;2022-11-15T00:09:36;5.20;99.90
18577;DHT22;9418;52.694;13.294;2022-11-15T00:12:04;5.10;99.90
18577;DHT22;9418;52.694;13.294;2022-11-15T00:14:31;5.10;99.90
18577;DHT22;9418;52.694;13.294;2022-11-15T00:16:57;5.10;99.90
18577;DHT22;9418;52.694;13.294;2022-11-15T00:19:24;5.10;99.90
18577;DHT22;9418;52.694;13.294;2022-11-15T00:21:51;5.10;99.90
18577;DHT22;9418;52.694;13.294;2022-11-15T00:24:17;5.10;99.90
18577;DHT22;9418;52.694;13.294;2022-11-15T00:26:44;5.10;99.90
18577;DHT22;9418;52.694;13.294;2022-11-15T00:29:12;5.10;99.90
18577;DHT22;9418;52.694;13.294;2022-11-15T00:31:38;5.00;99.90
18577;DHT22;9418;52.694;13.294;2022-11-15T00:34:05;5.00;99.90
18577;DHT22;9418;52.694;13.294;2022-11-15T00:36:32;5.00;99.90
18577;DHT22;9418;52.694;13.294;2022-11-15T00:38:59;5.00;99.90
18577;DHT22;9418;52.694;13.294;2022-11-15T00:41:26;5.00;99.90
18577;DHT22;9418;52.694;13.294;2022-11-15T00:43:52;5.00;99.90
18577;DHT22;9418;52.694;13.294;2022-11-15T00:46:20;5.00;99.90
18577;DHT22;9418;52.694;13.294;2022-11-15T00:48:47;5.00;99.90
18577;DHT22;9418;52.694;13.294;2022-11-15T00:51:13;5.00;99.90
18577;DHT22;9418;52.694;13.294;2022-11-15T00:53:40;5.00;99.90
18577;DHT22;9418;52.694;13.294;2022-11-15T00:56:07;5.00;99.90
18577;DHT22;9418;52.694;13.294;2022-11-15T00:58:33;5.00;99.90
18577;DHT22;9418;52.694;13.294;2022-11-15T01:01:07;5.00;99.90
18577;DHT22;9418;52.694;13.294;2022-11-15T01:03:36;4.90;99.90
18577;DHT22;9418;52.694;13.294;2022-11-15T01:06:03;4.90;99.90
18577;DHT22;9418;52.694;13.294;2022-11-15T01:08:30;4.80;99.90
18577;DHT22;9418;52.694;13.294;2022-11-15T01:11:00;4.80;99.90
18577;DHT22;9418;52.694;13.294;2022-11-15T01:13:30;4.80;99.90
18577;DHT22;9418;52.694;13.294;2022-11-15T01:15:56;4.70;99.90
18577;DHT22;9418;52.694;13.294;2022-11-15T01:18:23;4.70;99.90
18577;DHT22;9418;52.694;13.294;2022-11-15T01:20:51;4.70;99.90
18577;DHT22;9418;52.694;13.294;2022-11-15T01:23:17;4.70;99.90
18577;DHT22;9418;52.694;13.294;2022-11-15T01:25:44;4.70;99.90
18577;DHT22;9418;52.694;13.294;2022-11-15T01:28:11;4.70;99.90
18577;DHT22;9418;52.694;13.294;2022-11-15T01:30:37;4.60;99.90
18577;DHT22;9418;52.694;13.294;2022-11-15T01:33:04;4.70;99.90
18577;DHT22;9418;52.694;13.294;2022-11-15T01:35:31;4.70;99.90
18577;DHT22;9418;52.694;13.294;2022-11-15T01:37:59;4.60;99.90
18577;DHT22;9418;52.694;13.294;2022-11-15T01:40:25;4.50;99.90
18577;DHT22;9418;52.694;13.294;2022-11-15T01:42:52;4.60;99.90
18577;DHT22;9418;52.694;13.294;2022-11-15T01:45:19;4.60;99.90
18577;DHT22;9418;52.694;13.294;2022-11-15T01:47:47;4.50;99.90
18577;DHT22;9418;52.694;13.294;2022-11-15T01:50:17;4.60;99.90
18577;DHT22;9418;52.694;13.294;2022-11-15T01:52:45;4.50;99.90
18577;DHT22;9418;52.694;13.294;2022-11-15T01:55:17;4.60;99.90
18577;DHT22;9418;52.694;13.294;2022-11-15T01:57:47;4.60;99.90
18577;DHT22;9418;52.694;13.294;2022-11-15T02:00:14;4.60;99.90
18577;DHT22;9418;52.694;13.294;2022-11-15T02:02:41;4.50;99.90
18577;DHT22;9418;52.694;13.294;2022-11-15T02:05:09;4.50;99.90
18577;DHT22;9418;52.694;13.294;2022-11-15T02:07:36;4.50;99.90
18577;DHT22;9418;52.694;13.294;2022-11-15T02:10:06;4.60;99.90
18577;DHT22;9418;52.694;13.294;2022-11-15T02:12:35;4.60;99.90
18577;DHT22;9418;52.694;13.294;2022-11-15T02:15:03;4.50;99.90
18577;DHT22;9418;52.694;13.294;2022-11-15T02:17:52;4.50;99.90
18577;DHT22;9418;52.694;13.294;2022-11-15T02:20:33;4.50;99.90
18577;DHT22;9418;52.694;13.294;2022-11-15T02:23:13;4.50;99.90
18577;DHT22;9418;52.694;13.294;2022-11-15T02:25:51;4.50;99.90
18577;DHT22;9418;52.694;13.294;2022-11-15T02:28:38;4.50;99.90
18577;DHT22;9418;52.694;13.294;2022-11-15T02:31:11;4.60;99.90
18577;DHT22;9418;52.694;13.294;2022-11-15T02:33:43;4.50;99.90
18577;DHT22;9418;52.694;13.294;2022-11-15T02:36:16;4.50;99.90
18577;DHT22;9418;52.694;13.294;2022-11-15T02:38:51;4.50;99.90
18577;DHT22;9418;52.694;13.294;2022-11-15T02:41:25;4.50;99.90
18577;DHT22;9418;52.694;13.294;2022-11-15T02:43:56;4.40;99.90
18577;DHT22;9418;52.694;13.294;2022-11-15T02:46:31;4.40;99.90
18577;DHT22;9418;52.694;13.294;2022-11-15T02:49:17;4.40;99.90
18577;DHT22;9418;52.694;13.294;2022-11-15T02:51:45;4.40;99.90
18577;DHT22;9418;52.694;13.294;2022-11-15T02:54:15;4.40;99.90
18577;DHT22;9418;52.694;13.294;2022-11-15T02:56:45;4.40;99.90
18577;DHT22;9418;52.694;13.294;2022-11-15T02:59:28;4.30;99.90
18577;DHT22;9418;52.694;13.294;2022-11-15T03:02:15;4.30;99.90
18577;DHT22;9418;52.694;13.294;2022-11-15T03:04:53;4.30;99.90
18577;DHT22;9418;52.694;13.294;2022-11-15T03:07:25;4.30;99.90
18577;DHT22;9418;52.694;13.294;2022-11-15T03:10:00;4.20;99.90
18577;DHT22;9418;52.694;13.294;2022-11-15T03:12:34;4.20;99.90
18577;DHT22;9418;52.694;13.294;2022-11-15T03:15:06;4.30;99.90
18577;DHT22;9418;52.694;13.294;2022-11-15T03:17:38;4.20;99.90
18577;DHT22;9418;52.694;13.294;2022-11-15T03:20:08;4.30;99.90
18577;DHT22;9418;52.694;13.294;2022-11-15T03:22:39;4.20;99.90
18577;DHT22;9418;52.694;13.294;2022-11-15T03:25:09;4.30;99.90
18577;DHT22;9418;52.694;13.294;2022-11-15T03:27:39;4.30;99.90
18577;DHT22;9418;52.694;13.294;2022-11-15T03:30:08;4.30;99.90
18577;DHT22;9418;52.694;13.294;2022-11-15T03:32:39;4.30;99.90
18577;DHT22;9418;52.694;13.294;2022-11-15T03:35:09;4.30;99.90
18577;DHT22;9418;52.694;13.294;2022-11-15T03:37:57;4.20;99.90
18577;DHT22;9418;52.694;13.294;2022-11-15T03:40:30;4.30;99.90
18577;DHT22;9418;52.694;13.294;2022-11-15T03:43:04;4.30;99.90
18577;DHT22;9418;52.694;13.294;2022-11-15T03:45:37;4.40;99.90
18577;DHT22;9418;52.694;13.294;2022-11-15T03:48:13;4.30;99.90
18577;DHT22;9418;52.694;13.294;2022-11-15T03:50:42;4.30;99.90
18577;DHT22;9418;52.694;13.294;2022-11-15T03:53:09;4.30;99.90
18577;DHT22;9418;52.694;13.294;2022-11-15T03:55:36;4.30;99.90
18577;DHT22;9418;52.694;13.294;2022-11-15T03:58:02;4.20;99.90
18577;DHT22;9418;52.694;13.294;2022-11-15T04:00:29;4.30;99.90
18577;DHT22;9418;52.694;13.294;2022-11-15T04:02:56;4.20;99.90
18577;DHT22;9418;52.694;13.294;2022-11-15T04:05:24;4.30;99.90
18577;DHT22;9418;52.694;13.294;2022-11-15T04:07:51;4.30;99.90
18577;DHT22;9418;52.694;13.294;2022-11-15T04:10:17;4.30;99.90
18577;DHT22;9418;52.694;13.294;2022-11-15T04:12:45;4.30;99.90
18577;DHT22;9418;52.694;13.294;2022-11-15T04:15:14;4.30;99.90
18577;DHT22;9418;52.694;13.294;2022-11-15T04:17:43;4.40;99.90
18577;DHT22;9418;52.694;13.294;2022-11-15T04:20:12;4.40;99.90
18577;DHT22;9418;52.694;13.294;2022-11-15T04:23:00;4.40;99.90
18577;DHT22;9418;52.694;13.294;2022-11-15T04:25:45;4.40;99.90
18577;DHT22;9418;52.694;13.294;2022-11-15T04:28:12;4.30;99.90
18577;DHT22;9418;52.694;13.294;2022-11-15T04:30:38;4.30;99.90
18577;DHT22;9418;52.694;13.294;2022-11-15T04:33:05;4.30;99.90
18577;DHT22;9418;52.694;13.294;2022-11-15T04:35:32;4.20;99.90
18577;DHT22;9418;52.694;13.294;2022-11-15T04:38:01;4.20;99.90
18577;DHT22;9418;52.694;13.294;2022-11-15T04:40:27;4.20;99.90
18577;DHT22;9418;52.694;13.294;2022-11-15T04:42:54;4.10;99.90
18577;DHT22;9418;52.694;13.294;2022-11-15T04:45:21;4.10;99.90
18577;DHT22;9418;52.694;13.294;2022-11-15T04:47:47;4.00;99.90
18577;DHT22;9418;52.694;13.294;2022-11-15T04:50:15;4.00;99.90
18577;DHT22;9418;52.694;13.294;2022-11-15T04:52:43;4.00;99.90
18577;DHT22;9418;52.694;13.294;2022-11-15T04:55:11;3.90;99.90
18577;DHT22;9418;52.694;13.294;2022-11-15T04:57:37;3.90;99.90
18577;DHT22;9418;52.694;13.294;2022-11-15T05:00:06;3.90;99.90
18577;DHT22;9418;52.694;13.294;2022-11-15T05:02:33;3.90;99.90
18577;DHT22;9418;52.694;13.294;2022-11-15T05:05:17;3.90;99.90
18577;DHT22;9418;52.694;13.294;2022-11-15T05:07:44;3.80;99.90
18577;DHT22;9418;52.694;13.294;2022-11-15T05:10:12;3.80;99.90
18577;DHT22;9418;52.694;13.294;2022-11-15T05:12:39;3.70;99.90
18577;DHT22;9418;52.694;13.294;2022-11-15T05:15:06;3.80;99.90
18577;DHT22;9418;52.694;13.294;2022-11-15T05:17:33;3.80;99.90
18577;DHT22;9418;52.694;13.294;2022-11-15T05:20:00;3.70;99.90
18577;DHT22;9418;52.694;13.294;2022-11-15T05:22:27;3.70;99.90
18577;DHT22;9418;52.694;13.294;2022-11-15T05:24:54;3.70;99.90
18577;DHT22;9418;52.694;13.294;2022-11-15T05:27:22;3.70;99.90
18577;DHT22;9418;52.694;13.294;2022-11-15T05:29:48;3.70;99.90
18577;DHT22;9418;52.694;13.294;2022-11-15T05:32:15;3.70;99.90
18577;DHT22;9418;52.694;13.294;2022-11-15T05:34:43;3.80;99.90
18577;DHT22;9418;52.694;13.294;2022-11-15T05:37:10;4.00;99.90
18577;DHT22;9418;52.694;13.294;2022-11-15T05:39:36;4.00;99.90
18577;DHT22;9418;52.694;13.294;2022-11-15T05:42:06;4.00;99.90
18577;DHT22;9418;52.694;13.294;2022-11-15T05:44:36;4.00;99.90
18577;DHT22;9418;52.694;13.294;2022-11-15T05:47:04;4.00;99.90
18577;DHT22;9418;52.694;13.294;2022-11-15T05:49:34;4.00;99.90
18577;DHT22;9418;52.694;13.294;2022-11-15T05:52:03;4.00;99.90
18577;DHT22;9418;52.694;13.294;2022-11-15T05:54:31;4.00;99.90
18577;DHT22;9418;52.694;13.294;2022-11-15T05:56:58;3.90;99.90
18577;DHT22;9418;52.694;13.294;2022-11-15T05:59:25;3.90;99.90
18577;DHT22;9418;52.694;13.294;2022-11-15T06:01:53;4.00;99.90
18577;DHT22;9418;52.694;13.294;2022-11-15T06:04:20;4.00;99.90
18577;DHT22;9418;52.694;13.294;2022-11-15T06:06:46;3.90;99.90
18577;DHT22;9418;52.694;13.294;2022-11-15T06:09:13;4.00;99.90
18577;DHT22;9418;52.694;13.294;2022-11-15T06:11:39;3.90;99.90
18577;DHT22;9418;52.694;13.294;2022-11-15T06:14:06;3.90;99.90
18577;DHT22;9418;52.694;13.294;2022-11-15T06:16:33;3.90;99.90
18577;DHT22;9418;52.694;13.294;2022-11-15T06:19:01;3.90;99.90
18577;DHT22;9418;52.694;13.294;2022-11-15T06:21:27;3.90;99.90
18577;DHT22;9418;52.694;13.294;2022-11-15T06:23:54;3.90;99.90
18577;DHT22;9418;52.694;13.294;2022-11-15T06:26:21;3.90;99.90
18577;DHT22;9418;52.694;13.294;2022-11-15T06:28:47;3.80;99.90
18577;DHT22;9418;52.694;13.294;2022-11-15T06:31:14;3.80;99.90
18577;DHT22;9418;52.694;13.294;2022-11-15T06:33:41;3.70;99.90
18577;DHT22;9418;52.694;13.294;2022-11-15T06:36:11;3.70;99.90
18577;DHT22;9418;52.694;13.294;2022-11-15T06:38:40;3.70;99.90
18577;DHT22;9418;52.694;13.294;2022-11-15T06:41:09;3.80;99.90
18577;DHT22;9418;52.694;13.294;2022-11-15T06:43:36;3.70;99.90
18577;DHT22;9418;52.694;13.294;2022-11-15T06:46:04;3.80;99.90
18577;DHT22;9418;52.694;13.294;2022-11-15T06:48:32;3.80;99.90
18577;DHT22;9418;52.694;13.294;2022-11-15T06:51:01;3.80;99.90
18577;DHT22;9418;52.694;13.294;2022-11-15T06:53:30;3.90;99.90
18577;DHT22;9418;52.694;13.294;2022-11-15T06:55:58;4.00;99.90
18577;DHT22;9418;52.694;13.294;2022-11-15T06:58:26;4.10;99.90
18577;DHT22;9418;52.694;13.294;2022-11-15T07:00:52;4.20;99.90
18577;DHT22;9418;52.694;13.294;2022-11-15T07:03:19;4.20;99.90
18577;DHT22;9418;52.694;13.294;2022-11-15T07:05:51;4.20;99.90
18577;DHT22;9418;52.694;13.294;2022-11-15T07:08:18;4.30;99.90
18577;DHT22;9418;52.694;13.294;2022-11-15T07:10:46;4.30;99.90
18577;DHT22;9418;52.694;13.294;2022-11-15T07:13:13;4.40;99.90
18577;DHT22;9418;52.694;13.294;2022-11-15T07:15:40;4.50;99.90
18577;DHT22;9418;52.694;13.294;2022-11-15T07:18:06;4.50;99.90
18577;DHT22;9418;52.694;13.294;2022-11-15T07:20:33;4.60;99.90
18577;DHT22;9418;52.694;13.294;2022-11-15T07:23:00;4.70;99.90
18577;DHT22;9418;52.694;13.294;2022-11-15T07:25:27;4.80;98.50
18577;DHT22;9418;52.694;13.294;2022-11-15T07:27:56;5.10;94.60
18577;DHT22;9418;52.694;13.294;2022-11-15T07:30:23;5.30;92.80
18577;DHT22;9418;52.694;13.294;2022-11-15T07:32:52;5.30;90.80
18577;DHT22;9418;52.694;13.294;2022-11-15T07:35:19;5.30;90.40
18577;DHT22;9418;52.694;13.294;2022-11-15T07:37:53;5.30;89.90
18577;DHT22;9418;52.694;13.294;2022-11-15T07:40:20;5.30;89.00
18577;DHT22;9418;52.694;13.294;2022-11-15T07:42:46;5.50;85.10
18577;DHT22;9418;52.694;13.294;2022-11-15T07:45:20;5.80;82.50
18577;DHT22;9418;52.694;13.294;2022-11-15T07:47:47;6.00;86.50
18577;DHT22;9418;52.694;13.294;2022-11-15T07:50:14;6.00;98.00
18577;DHT22;9418;52.694;13.294;2022-11-15T07:52:40;6.10;99.70
18577;DHT22;9418;52.694;13.294;2022-11-15T07:55:08;6.20;99.90
18577;DHT22;9418;52.694;13.294;2022-11-15T07:57:35;6.20;99.90
18577;DHT22;9418;52.694;13.294;2022-11-15T08:00:03;6.30;99.90
18577;DHT22;9418;52.694;13.294;2022-11-15T08:02:31;6.20;99.90
18577;DHT22;9418;52.694;13.294;2022-11-15T08:04:58;6.40;99.90
18577;DHT22;9418;52.694;13.294;2022-11-15T08:07:28;6.70;99.90
18577;DHT22;9418;52.694;13.294;2022-11-15T08:09:55;6.90;99.90
18577;DHT22;9418;52.694;13.294;2022-11-15T08:12:22;7.00;99.90
18577;DHT22;9418;52.694;13.294;2022-11-15T08:14:49;7.30;99.90
18577;DHT22;9418;52.694;13.294;2022-11-15T08:17:15;7.50;99.90
18577;DHT22;9418;52.694;13.294;2022-11-15T08:19:43;8.00;99.90
18577;DHT22;9418;52.694;13.294;2022-11-15T08:22:10;8.20;99.90
18577;DHT22;9418;52.694;13.294;2022-11-15T08:24:36;8.40;22.90
18577;DHT22;9418;52.694;13.294;2022-11-15T08:27:03;8.50;28.30
18577;DHT22;9418;52.694;13.294;2022-11-15T08:29:30;8.70;53.50
18577;DHT22;9418;52.694;13.294;2022-11-15T08:31:56;9.00;47.20
18577;DHT22;9418;52.694;13.294;2022-11-15T08:34:23;9.00;74.20
18577;DHT22;9418;52.694;13.294;2022-11-15T08:36:51;10.10;99.90
18577;DHT22;9418;52.694;13.294;2022-11-15T08:39:18;10.80;99.90
18577;DHT22;9418;52.694;13.294;2022-11-15T08:41:44;10.50;99.90
18577;DHT22;9418;52.694;13.294;2022-11-15T08:44:11;11.10;99.90
18577;DHT22;9418;52.694;13.294;2022-11-15T08:46:38;10.90;99.90
18577;DHT22;9418;52.694;13.294;2022-11-15T08:49:05;10.10;99.90
18577;DHT22;9418;52.694;13.294;2022-11-15T08:51:31;9.60;95.50
18577;DHT22;9418;52.694;13.294;2022-11-15T08:53:59;9.40;66.20
18577;DHT22;9418;52.694;13.294;2022-11-15T08:56:26;9.20;64.30
18577;DHT22;9418;52.694;13.294;2022-11-15T08:58:52;9.00;49.20
18577;DHT22;9418;52.694;13.294;2022-11-15T09:01:20;8.90;42.90
18577;DHT22;9418;52.694;13.294;2022-11-15T09:03:47;8.80;33.00
18577;DHT22;9418;52.694;13.294;2022-11-15T09:06:14;8.60;26.20
18577;DHT22;9418;52.694;13.294;2022-11-15T09:08:41;8.50;99.90
18577;DHT22;9418;52.694;13.294;2022-11-15T09:11:10;8.60;99.90
18577;DHT22;9418;52.694;13.294;2022-11-15T09:13:37;8.60;99.90
18577;DHT22;9418;52.694;13.294;2022-11-15T09:16:05;8.80;99.90
18577;DHT22;9418;52.694;13.294;2022-11-15T09:18:32;8.80;99.90
18577;DHT22;9418;52.694;13.294;2022-11-15T09:20:59;8.80;99.90
18577;DHT22;9418;52.694;13.294;2022-11-15T09:23:27;8.90;99.90
18577;DHT22;9418;52.694;13.294;2022-11-15T09:25:58;8.90;99.90
18577;DHT22;9418;52.694;13.294;2022-11-15T09:28:26;9.10;91.50
18577;DHT22;9418;52.694;13.294;2022-11-15T09:30:56;9.60;29.90
18577;DHT22;9418;52.694;13.294;2022-11-15T09:33:23;10.20;64.10
18577;DHT22;9418;52.694;13.294;2022-11-15T09:35:49;10.70;89.20
18577;DHT22;9418;52.694;13.294;2022-11-15T09:38:16;11.00;99.90
18577;DHT22;9418;52.694;13.294;2022-11-15T09:40:43;11.20;99.90
18577;DHT22;9418;52.694;13.294;2022-11-15T09:43:24;11.30;99.90
18577;DHT22;9418;52.694;13.294;2022-11-15T09:46:02;12.30;1.40
18577;DHT22;9418;52.694;13.294;2022-11-15T09:48:48;12.40;99.90
18577;DHT22;9418;52.694;13.294;2022-11-15T09:51:27;12.40;99.90
18577;DHT22;9418;52.694;13.294;2022-11-15T09:54:00;12.40;99.90
18577;DHT22;9418;52.694;13.294;2022-11-15T09:56:29;11.90;99.90
18577;DHT22;9418;52.694;13.294;2022-11-15T09:59:05;12.50;99.90
18577;DHT22;9418;52.694;13.294;2022-11-15T10:01:41;13.10;99.90
18577;DHT22;9418;52.694;13.294;2022-11-15T10:04:09;12.70;99.90
18577;DHT22;9418;52.694;13.294;2022-11-15T10:06:42;13.40;99.90
18577;DHT22;9418;52.694;13.294;2022-11-15T10:09:15;13.30;99.90
18577;DHT22;9418;52.694;13.294;2022-11-15T10:11:42;13.10;99.90
18577;DHT22;9418;52.694;13.294;2022-11-15T10:14:12;13.00;99.90
18577;DHT22;9418;52.694;13.294;2022-11-15T10:17:09;12.60;99.90
18577;DHT22;9418;52.694;13.294;2022-11-15T10:19:50;12.20;99.90
18577;DHT22;9418;52.694;13.294;2022-11-15T10:22:26;12.50;99.90
18577;DHT22;9418;52.694;13.294;2022-11-15T10:25:13;12.30;99.90
18577;DHT22;9418;52.694;13.294;2022-11-15T10:27:42;12.70;99.90
18577;DHT22;9418;52.694;13.294;2022-11-15T10:30:12;13.10;99.90
18577;DHT22;9418;52.694;13.294;2022-11-15T10:32:42;14.30;99.90
18577;DHT22;9418;52.694;13.294;2022-11-15T10:35:21;14.40;99.90
18577;DHT22;9418;52.694;13.294;2022-11-15T10:37:48;13.60;99.90
18577;DHT22;9418;52.694;13.294;2022-11-15T10:40:17;13.80;99.90
18577;DHT22;9418;52.694;13.294;2022-11-15T10:42:45;13.90;99.90
18577;DHT22;9418;52.694;13.294;2022-11-15T10:45:24;13.20;99.90
18577;DHT22;9418;52.694;13.294;2022-11-15T10:47:52;12.90;99.90
18577;DHT22;9418;52.694;13.294;2022-11-15T10:50:28;12.80;99.90
18577;DHT22;9418;52.694;13.294;2022-11-15T10:52:55;12.50;99.90
18577;DHT22;9418;52.694;13.294;2022-11-15T10:55:25;12.70;99.90
18577;DHT22;9418;52.694;13.294;2022-11-15T10:57:53;12.60;99.90
18577;DHT22;9418;52.694;13.294;2022-11-15T11:00:37;12.40;99.90
18577;DHT22;9418;52.694;13.294;2022-11-15T11:03:25;12.40;99.90
18577;DHT22;9418;52.694;13.294;2022-11-15T11:06:03;12.30;99.90
18577;DHT22;9418;52.694;13.294;2022-11-15T11:08:31;12.60;99.90
18577;DHT22;9418;52.694;13.294;2022-11-15T11:11:00;12.30;99.90
18577;DHT22;9418;52.694;13.294;2022-11-15T11:13:29;12.30;99.90
18577;DHT22;9418;52.694;13.294;2022-11-15T11:16:06;12.80;99.90
18577;DHT22;9418;52.694;13.294;2022-11-15T11:18:44;12.90;99.90
18577;DHT22;9418;52.694;13.294;2022-11-15T11:21:17;13.20;99.90
18577;DHT22;9418;52.694;13.294;2022-11-15T11:23:49;13.50;99.90
18577;DHT22;9418;52.694;13.294;2022-11-15T11:26:35;13.20;99.90
18577;DHT22;9418;52.694;13.294;2022-11-15T11:29:19;13.00;99.90
18577;DHT22;9418;52.694;13.294;2022-11-15T11:31:55;12.90;99.90
18577;DHT22;9418;52.694;13.294;2022-11-15T11:34:37;12.80;99.90
18577;DHT22;9418;52.694;13.294;2022-11-15T11:37:11;12.90;99.90
18577;DHT22;9418;52.694;13.294;2022-11-15T11:39:44;12.80;99.90
18577;DHT22;9418;52.694;13.294;2022-11-15T11:42:21;13.00;99.90
18577;DHT22;9418;52.694;13.294;2022-11-15T11:44:55;13.10;99.90
18577;DHT22;9418;52.694;13.294;2022-11-15T11:47:31;13.10;99.90
18577;DHT22;9418;52.694;13.294;2022-11-15T11:50:05;13.30;99.90
18577;DHT22;9418;52.694;13.294;2022-11-15T11:52:41;13.40;99.90
18577;DHT22;9418;52.694;13.294;2022-11-15T11:55:14;14.10;99.90
18577;DHT22;9418;52.694;13.294;2022-11-15T11:57:47;14.70;99.90
18577;DHT22;9418;52.694;13.294;2022-11-15T12:00:18;14.90;99.90
18577;DHT22;9418;52.694;13.294;2022-11-15T12:02:54;14.90;99.90
18577;DHT22;9418;52.694;13.294;2022-11-15T12:05:28;15.90;99.20
18577;DHT22;9418;52.694;13.294;2022-11-15T12:08:18;16.80;61.30
18577;DHT22;9418;52.694;13.294;2022-11-15T12:10:50;18.20;90.00
18577;DHT22;9418;52.694;13.294;2022-11-15T12:13:23;19.10;99.90
18577;DHT22;9418;52.694;13.294;2022-11-15T12:15:53;18.80;99.90
18577;DHT22;9418;52.694;13.294;2022-11-15T12:18:23;18.00;99.90
18577;DHT22;9418;52.694;13.294;2022-11-15T12:20:54;17.90;99.90
18577;DHT22;9418;52.694;13.294;2022-11-15T12:23:25;17.30;99.90
18577;DHT22;9418;52.694;13.294;2022-11-15T12:25:57;16.90;92.60
18577;DHT22;9418;52.694;13.294;2022-11-15T12:28:34;15.80;67.00
18577;DHT22;9418;52.694;13.294;2022-11-15T12:31:05;15.10;28.50
18577;DHT22;9418;52.694;13.294;2022-11-15T12:33:37;14.60;99.90
18577;DHT22;9418;52.694;13.294;2022-11-15T12:36:09;14.60;99.90
18577;DHT22;9418;52.694;13.294;2022-11-15T12:38:53;14.20;99.90
18577;DHT22;9418;52.694;13.294;2022-11-15T12:41:21;14.10;99.90
18577;DHT22;9418;52.694;13.294;2022-11-15T12:43:49;13.90;99.90
18577;DHT22;9418;52.694;13.294;2022-11-15T12:49:07;13.80;99.90
18577;DHT22;9418;52.694;13.294;2022-11-15T12:52:07;13.90;99.90
18577;DHT22;9418;52.694;13.294;2022-11-15T12:54:53;14.50;99.90
18577;DHT22;9418;52.694;13.294;2022-11-15T12:57:28;14.60;99.90
18577;DHT22;9418;52.694;13.294;2022-11-15T12:59:56;14.40;99.90
18577;DHT22;9418;52.694;13.294;2022-11-15T13:02:25;14.40;99.90
18577;DHT22;9418;52.694;13.294;2022-11-15T13:04:55;14.60;99.90
18577;DHT22;9418;52.694;13.294;2022-11-15T13:07:58;15.30;22.40
18577;DHT22;9418;52.694;13.294;2022-11-15T13:10:30;16.00;54.30
18577;DHT22;9418;52.694;13.294;2022-11-15T13:12:58;16.60;68.20
18577;DHT22;9418;52.694;13.294;2022-11-15T13:15:43;17.00;80.20
18577;DHT22;9418;52.694;13.294;2022-11-15T13:18:34;16.70;78.80
18577;DHT22;9418;52.694;13.294;2022-11-15T13:21:02;16.50;78.30
18577;DHT22;9418;52.694;13.294;2022-11-15T13:23:53;16.10;69.90
18577;DHT22;9418;52.694;13.294;2022-11-15T13:26:21;15.70;64.10
18577;DHT22;9418;52.694;13.294;2022-11-15T13:28:49;15.50;47.80
18577;DHT22;9418;52.694;13.294;2022-11-15T13:31:34;15.60;49.90
18577;DHT22;9418;52.694;13.294;2022-11-15T13:34:13;16.00;54.50
18577;DHT22;9418;52.694;13.294;2022-11-15T13:36:42;15.90;59.10
18577;DHT22;9418;52.694;13.294;2022-11-15T13:39:23;16.00;59.30
18577;DHT22;9418;52.694;13.294;2022-11-15T13:41:52;16.30;67.50
18577;DHT22;9418;52.694;13.294;2022-11-15T13:44:20;16.30;65.80
18577;DHT22;9418;52.694;13.294;2022-11-15T13:46:47;15.80;62.10
18577;DHT22;9418;52.694;13.294;2022-11-15T13:49:14;15.50;45.90
18577;DHT22;9418;52.694;13.294;2022-11-15T13:51:44;15.50;42.70
18577;DHT22;9418;52.694;13.294;2022-11-15T13:54:18;15.10;35.10
18577;DHT22;9418;52.694;13.294;2022-11-15T13:56:48;14.90;74.20
18577;DHT22;9418;52.694;13.294;2022-11-15T13:59:20;14.40;99.90
18577;DHT22;9418;52.694;13.294;2022-11-15T14:01:50;13.90;99.90
18577;DHT22;9418;52.694;13.294;2022-11-15T14:04:20;13.60;99.90
18577;DHT22;9418;52.694;13.294;2022-11-15T14:06:49;13.40;99.90
18577;DHT22;9418;52.694;13.294;2022-11-15T14:09:39;13.20;99.90
18577;DHT22;9418;52.694;13.294;2022-11-15T14:12:28;13.10;99.90
18577;DHT22;9418;52.694;13.294;2022-11-15T14:14:56;12.90;99.90
18577;DHT22;9418;52.694;13.294;2022-11-15T14:17:34;12.70;99.90
18577;DHT22;9418;52.694;13.294;2022-11-15T14:20:02;12.50;97.60
18577;DHT22;9418;52.694;13.294;2022-11-15T14:22:30;12.40;86.20
18577;DHT22;9418;52.694;13.294;2022-11-15T14:25:18;12.30;76.30
18577;DHT22;9418;52.694;13.294;2022-11-15T14:30:52;11.90;62.90
18577;DHT22;9418;52.694;13.294;2022-11-15T14:33:25;11.80;56.90
18577;DHT22;9418;52.694;13.294;2022-11-15T14:35:54;11.70;53.20
18577;DHT22;9418;52.694;13.294;2022-11-15T14:38:22;11.60;47.20
18577;DHT22;9418;52.694;13.294;2022-11-15T14:40:49;11.40;42.20
18577;DHT22;9418;52.694;13.294;2022-11-15T14:43:17;11.30;37.50
18577;DHT22;9418;52.694;13.294;2022-11-15T14:45:45;11.20;34.60
18577;DHT22;9418;52.694;13.294;2022-11-15T14:48:13;11.00;30.40
18577;DHT22;9418;52.694;13.294;2022-11-15T14:50:40;10.90;26.50
18577;DHT22;9418;52.694;13.294;2022-11-15T14:53:07;10.80;86.00
18577;DHT22;9418;52.694;13.294;2022-11-15T14:55:37;10.70;99.90
18577;DHT22;9418;52.694;13.294;2022-11-15T14:58:05;10.60;99.90
18577;DHT22;9418;52.694;13.294;2022-11-15T15:00:34;10.50;99.90
18577;DHT22;9418;52.694;13.294;2022-11-15T15:03:01;10.40;99.90
18577;DHT22;9418;52.694;13.294;2022-11-15T15:05:32;10.20;99.90
18577;DHT22;9418;52.694;13.294;2022-11-15T15:07:59;10.10;99.90
18577;DHT22;9418;52.694;13.294;2022-11-15T15:10:29;10.00;99.90
18577;DHT22;9418;52.694;13.294;2022-11-15T15:12:57;9.90;99.90
18577;DHT22;9418;52.694;13.294;2022-11-15T15:15:25;9.70;99.90
18577;DHT22;9418;52.694;13.294;2022-11-15T15:17:53;9.60;99.90
18577;DHT22;9418;52.694;13.294;2022-11-15T15:20:19;9.50;99.90
18577;DHT22;9418;52.694;13.294;2022-11-15T15:22:47;9.50;99.90
18577;DHT22;9418;52.694;13.294;2022-11-15T15:25:23;9.40;99.90
18577;DHT22;9418;52.694;13.294;2022-11-15T15:27:53;9.40;99.90
18577;DHT22;9418;52.694;13.294;2022-11-15T15:30:19;9.30;99.90
18577;DHT22;9418;52.694;13.294;2022-11-15T15:32:46;9.20;99.90
18577;DHT22;9418;52.694;13.294;2022-11-15T15:35:13;9.10;99.90
18577;DHT22;9418;52.694;13.294;2022-11-15T15:37:40;9.00;99.90
18577;DHT22;9418;52.694;13.294;2022-11-15T15:40:13;9.00;99.90
18577;DHT22;9418;52.694;13.294;2022-11-15T15:42:39;8.90;99.90
18577;DHT22;9418;52.694;13.294;2022-11-15T15:45:07;8.80;99.90
18577;DHT22;9418;52.694;13.294;2022-11-15T15:47:34;8.70;99.90
18577;DHT22;9418;52.694;13.294;2022-11-15T15:50:01;8.70;99.90
18577;DHT22;9418;52.694;13.294;2022-11-15T15:52:27;8.60;99.90
18577;DHT22;9418;52.694;13.294;2022-11-15T15:54:54;8.60;99.90
18577;DHT22;9418;52.694;13.294;2022-11-15T15:57:22;8.60;99.90
18577;DHT22;9418;52.694;13.294;2022-11-15T15:59:49;8.60;99.90
18577;DHT22;9418;52.694;13.294;2022-11-15T16:02:15;8.50;99.90
18577;DHT22;9418;52.694;13.294;2022-11-15T16:04:42;8.50;99.90
18577;DHT22;9418;52.694;13.294;2022-11-15T16:07:16;8.40;99.90